01:55
Airports
Links
Donate
Help keep this website running!
PayPal
Bitcoin
MATER
No METAR for DRZR
Current Weather Conditions at
No weather report for DRZR
TAF
TAF DRZR 232300Z 2400/2424 06008KT 4500 DU NSC BECMG 2404/2406 2000 TEMPO 2406/2409 1200 BECMG 2418/2420 6000 NSW
Forecast at DRZR
00:00 24-11-17 to 04:00 24-11-17
DU
Wind:8 Knots from 60°
Visibility:2.8 statute miles
NSC
BECMG 04:00 24-11-17 to 18:00 24-11-17
DU
Wind:8 Knots from 60°
Visibility:1.24 statute miles
NSC
TEMPO 06:00 24-11-17 to 09:00 24-11-17
Visibility:0.75 statute miles
BECMG 18:00 24-11-17 to 00:00 25-11-17
NSW
Wind:8 Knots from 60°
Visibility:3.73 statute miles
NSC